M I D A S
Marine Information and Data Acquisition System
Tripno 1477 of the Zeeleeuw from 2008-02-13 08:18:54 to 2008-02-13 15:43:21
Back to CruiseResearch ActivitiesStationsMapUnderway DataData graphs

EquipmentUnitsComment
TimeDGPSUTC
LatitudeDGPSDM.mWGS84
LongitudeDGPSDM.mWGS84
TemperatureSBE03/SBE38deg celciusITS90
ConductivitySBE21S/mITS90
SalinitySBE21 Practical Salinity Units
ChlorophylAChelsea fluorimeterg/lCalibrated in Aceton
Missing or incorrect values are displayed as -999
Sea surface data collected by the RV Zeeleeuw from 2008-02-13 08:19:25 to 2008-02-13 15:53:38
Time Latitude Longitude Temperature Conductivity Salinity ChlorophylA
2008-02-13 08:20:30 51°13.664 2°55.955 -999 0.027183 0.136618 -1.801521
2008-02-13 08:21:30 51°13.663 2°55.954 -999 0.02708 0.136117 -1.801521
2008-02-13 08:22:30 51°13.67 2°55.923 -999 0.027183 0.13664 -1.766697
2008-02-13 08:23:30 51°13.698 2°55.819 -999 0.027286 0.137164 -1.801521
2008-02-13 08:24:30 51°13.757 2°55.71 -999 0.027389 0.137694 -1.801521
2008-02-13 08:25:30 51°13.839 2°55.645 -999 0.027492 0.13822 -1.801521
2008-02-13 08:26:30 51°13.922 2°55.644 -999 0.067214 0.344505 -1.662225
2008-02-13 08:27:30 51°13.957 2°55.667 -999 3.245401 28.979371 3.491735
2008-02-13 08:28:30 51°13.973 2°55.608 -999 3.114856 28.434926 3.631031
2008-02-13 08:29:30 51°14.034 2°55.507 -999 3.134841 29.058123 3.979271
2008-02-13 08:30:30 51°14.1 2°55.442 -999 3.064659 28.502596 3.839975
2008-02-13 08:31:30 51°14.163 2°55.384 -999 3.041061 28.36108 3.874799
2008-02-13 08:32:30 51°14.226 2°55.304 -999 3.086398 28.861807 3.805151
2008-02-13 08:33:30 51°14.298 2°55.183 -999 3.093334 28.960378 3.770327
2008-02-13 08:34:30 51°14.368 2°55.011 -999 3.116833 29.214349 3.770327
2008-02-13 08:35:30 51°14.469 2°54.792 -999 3.145198 29.50681 4.118568
2008-02-13 08:36:30 51°14.636 2°54.613 -999 3.255464 30.577963 4.675753
2008-02-13 08:37:30 51°14.821 2°54.455 -999 3.348045 31.4097 4.536456
2008-02-13 08:38:30 51°15.005 2°54.299 -999 3.385745 31.734651 3.909623
2008-02-13 08:39:30 51°15.183 2°54.123 -999 3.406357 31.903594 3.422087
2008-02-13 08:40:30 51°15.364 2°53.948 -999 3.42407 32.058216 3.178318
2008-02-13 08:41:30 51°15.548 2°53.78 -999 3.435361 32.161218 3.143494
2008-02-13 08:42:30 51°15.732 2°53.61 -999 3.440022 32.200688 3.247966
2008-02-13 08:43:30 51°15.917 2°53.445 -999 3.439712 32.223493 3.317614
2008-02-13 08:44:30 51°16.104 2°53.284 -999 3.430596 32.16998 3.073846
2008-02-13 08:45:30 51°16.299 2°53.147 -999 3.426039 32.164753 2.76043
2008-02-13 08:46:30 51°16.491 2°53.004 -999 3.422621 32.179517 2.307717
2008-02-13 08:47:30 51°16.684 2°52.866 -999 3.427491 32.282754 1.750532
2008-02-13 08:48:30 51°16.877 2°52.734 -999 3.426351 32.25908 1.924652
2008-02-13 08:49:30 51°17.075 2°52.613 -999 3.424693 32.199332 2.168421
2008-02-13 08:50:30 51°17.277 2°52.514 -999 3.437123 32.288396 2.447013
2008-02-13 08:51:30 51°17.483 2°52.452 -999 3.440127 32.278202 2.830078
2008-02-13 08:52:30 51°17.693 2°52.425 -999 3.453075 32.350767 3.213142
2008-02-13 08:53:30 51°17.899 2°52.442 -999 3.470167 32.475213 3.10867
2008-02-13 08:54:30 51°18.074 2°52.589 -999 3.487675 32.61094 2.864902
2008-02-13 08:55:30 51°18.222 2°52.801 -999 3.494202 32.649698 2.969374
2008-02-13 08:56:30 51°18.374 2°53.007 -999 3.491922 32.62061 3.10867
2008-02-13 08:57:30 51°18.526 2°53.213 -999 3.495134 32.656655 3.10867
2008-02-13 08:58:30 51°18.679 2°53.413 -999 3.493269 32.649992 3.004198
2008-02-13 08:59:30 51°18.83 2°53.617 -999 3.486017 32.594633 2.969374
2008-02-13 09:00:30 51°19 2°53.777 -999 3.474208 32.518107 2.830078
2008-02-13 09:01:30 51°19.178 2°53.918 -999 3.465299 32.457137 2.725606
2008-02-13 09:02:30 51°19.346 2°54.083 -999 3.45494 32.407198 2.795254
2008-02-13 09:03:30 51°19.509 2°54.259 -999 3.440852 32.320055 2.725606
2008-02-13 09:04:30 51°19.665 2°54.448 -999 3.416613 32.123131 2.76043
2008-02-13 09:05:30 51°19.82 2°54.637 -999 3.397348 31.980413 2.690782
2008-02-13 09:06:30 51°19.977 2°54.823 -999 3.393205 31.971232 2.795254
2008-02-13 09:07:30 51°20.134 2°55.012 -999 3.376737 31.841175 2.725606
2008-02-13 09:08:30 51°20.292 2°55.203 -999 3.372801 31.830448 2.725606
2008-02-13 09:09:30 51°20.45 2°55.392 -999 3.366794 31.789947 2.655957
2008-02-13 09:10:30 51°20.608 2°55.577 -999 3.337277 31.561945 2.447013
2008-02-13 09:11:30 51°20.764 2°55.769 -999 3.32195 31.451915 2.377365
2008-02-13 09:12:30 51°20.922 2°55.958 -999 3.30362 31.301229 2.203245
2008-02-13 09:13:30 51°21.072 2°56.162 -999 3.307245 31.376621 2.238069
2008-02-13 09:14:30 51°21.223 2°56.364 -999 3.298339 31.302523 2.342541
2008-02-13 09:15:30 51°21.367 2°56.578 -999 3.290366 31.244387 2.342541
2008-02-13 09:16:30 51°21.513 2°56.791 -999 3.281046 31.165814 2.342541
2008-02-13 09:17:30 51°21.659 2°57.003 -999 3.273279 31.099115 2.272893
2008-02-13 09:18:30 51°21.807 2°57.214 -999 3.273901 31.109193 2.238069
2008-02-13 09:19:30 51°21.955 2°57.428 -999 3.27038 31.085391 2.272893
2008-02-13 09:20:30 51°22.101 2°57.643 -999 3.262821 31.025222 2.307717
2008-02-13 09:21:30 51°22.246 2°57.858 -999 3.264374 31.04335 2.447013
2008-02-13 09:22:30 51°22.392 2°58.075 -999 3.274212 31.142572 2.412189
2008-02-13 09:23:30 51°22.538 2°58.291 -999 3.267274 31.072127 2.342541
2008-02-13 09:24:30 51°22.685 2°58.508 -999 3.275558 31.161193 2.272893
2008-02-13 09:25:30 51°22.831 2°58.727 -999 3.27504 31.159284 2.272893
2008-02-13 09:26:30 51°22.977 2°58.945 -999 3.277836 31.193198 2.203245
2008-02-13 09:27:30 51°23.12 2°59.164 -999 3.276179 31.186386 2.098773
2008-02-13 09:28:30 51°23.265 2°59.381 -999 3.27473 31.176425 2.029124
2008-02-13 09:29:30 51°23.409 2°59.597 -999 3.277836 31.209195 1.9943
2008-02-13 09:30:30 51°23.553 2°59.813 -999 3.277112 31.201548 1.959476
2008-02-13 09:31:30 51°23.697 3°0.031 -999 3.278147 31.207138 1.959476
2008-02-13 09:32:30 51°23.875 3°0.128 -999 3.277836 31.209195 1.924652
2008-02-13 09:33:30 51°24.035 2°59.914 -999 3.27939 31.218466 1.924652
2008-02-13 09:34:30 51°24.168 2°59.631 -999 3.281668 31.228264 1.889828
2008-02-13 09:35:30 51°24.219 2°59.279 -999 3.282289 31.241932 1.785356
2008-02-13 09:36:30 51°24.256 2°58.918 -999 3.284878 31.259444 1.715708
2008-02-13 09:37:30 51°24.292 2°58.557 -999 3.294923 31.335055 1.611236
2008-02-13 09:38:30 51°24.328 2°58.195 -999 3.301654 31.397076 1.297819
2008-02-13 09:39:30 51°24.366 2°57.833 -999 3.305175 31.42168 1.332643
2008-02-13 09:40:30 51°24.406 2°57.472 -999 3.308385 31.451932 1.367467
2008-02-13 09:41:30 51°24.497 2°57.147 -999 3.320191 31.561116 1.332643
2008-02-13 09:42:30 51°24.603 2°56.828 -999 3.331687 31.667889 1.123699
2008-02-13 09:43:30 51°24.706 2°56.507 -999 3.338522 31.716517 1.088875
2008-02-13 09:44:30 51°24.806 2°56.185 -999 3.354885 31.850993 1.367467
2008-02-13 09:45:30 51°24.913 2°55.867 -999 3.356646 31.843361 1.367467
2008-02-13 09:46:30 51°25.022 2°55.551 -999 3.364414 31.916062 1.193347
2008-02-13 09:47:30 51°25.133 2°55.235 -999 3.361824 31.879796 1.158523
2008-02-13 09:48:30 51°25.245 2°54.919 -999 3.368142 31.929987 1.054051
2008-02-13 09:49:30 51°25.356 2°54.605 -999 3.379431 32.026984 1.054051
2008-02-13 09:50:30 51°25.467 2°54.29 -999 3.388132 32.0831 1.158523
2008-02-13 09:51:30 51°25.577 2°53.984 -999 3.39735 32.135503 1.262995
2008-02-13 09:52:30 51°25.684 2°53.675 -999 3.4075 32.19667 1.262995
2008-02-13 09:53:30 51°25.792 2°53.362 -999 3.414336 32.24022 1.228171
2008-02-13 09:54:29 51°25.898 2°53.055 -999 3.418376 32.267124 1.193347
2008-02-13 09:55:28 51°26.001 2°52.748 -999 3.426145 32.33216 1.088875
2008-02-13 09:56:26 51°26.103 2°52.444 -999 3.433085 32.399402 1.158523
2008-02-13 09:57:27 51°26.21 2°52.125 -999 3.430806 32.385541 1.054051
2008-02-13 09:58:26 51°26.314 2°51.815 -999 3.430185 32.403622 0.845107
2008-02-13 09:59:27 51°26.424 2°51.495 -999 3.432153 32.438862 0.775459
2008-02-13 10:00:27 51°26.533 2°51.181 -999 3.430185 32.421864 0.70581
2008-02-13 10:01:26 51°26.641 2°50.872 -999 3.437851 32.48767 0.845107
2008-02-13 10:02:26 51°26.75 2°50.56 -999 3.436814 32.456713 0.879931
2008-02-13 10:03:26 51°26.857 2°50.248 -999 3.454321 32.580768 0.810283
2008-02-13 10:04:27 51°26.966 2°49.933 -999 3.456392 32.566818 0.810283
2008-02-13 10:05:27 51°27.075 2°49.625 -999 3.465404 32.614492 0.775459
2008-02-13 10:06:27 51°27.181 2°49.316 -999 3.481253 32.670445 0.810283
2008-02-13 10:07:27 51°27.288 2°49.006 -999 3.503216 32.80064 0.845107
2008-02-13 10:08:26 51°27.393 2°48.701 -999 3.511814 32.838035 0.949579
2008-02-13 10:09:26 51°27.501 2°48.392 -999 3.517408 32.839622 0.949579
2008-02-13 10:10:26 51°27.607 2°48.081 -999 3.534295 32.895409 1.054051
2008-02-13 10:11:26 51°27.712 2°47.766 -999 3.547763 32.90209 1.262995
2008-02-13 10:12:26 51°27.817 2°47.454 -999 3.564133 32.982886 1.262995
2008-02-13 10:13:26 51°27.924 2°47.144 -999 3.571179 33.013718 1.332643
2008-02-13 10:14:26 51°28.029 2°46.833 -999 3.572422 33.007507 1.332643
2008-02-13 10:15:26 51°28.134 2°46.52 -999 3.577499 33.063284 1.123699
2008-02-13 10:16:26 51°28.238 2°46.205 -999 3.579779 33.103932 1.158523
2008-02-13 10:17:26 51°28.344 2°45.893 -999 3.579158 33.108426 1.123699
2008-02-13 10:18:27 51°28.453 2°45.578 -999 3.580608 33.101571 1.054051
2008-02-13 10:19:26 51°28.557 2°45.271 -999 3.586825 33.12556 1.123699
2008-02-13 10:20:26 51°28.665 2°44.961 -999 3.592109 33.134511 1.228171
2008-02-13 10:21:26 51°28.772 2°44.652 -999 3.597393 33.144355 1.297819
2008-02-13 10:22:26 51°28.879 2°44.343 -999 3.603403 33.163417 1.297819
2008-02-13 10:23:26 51°29.025 2°44.11 -999 3.609724 33.185626 1.228171
2008-02-13 10:24:26 51°29.217 2°44.015 -999 3.625474 33.248118 1.262995
2008-02-13 10:25:26 51°29.411 2°43.926 -999 3.632313 33.272766 1.158523
2008-02-13 10:26:26 51°29.606 2°43.836 -999 3.632624 33.270526 1.228171
2008-02-13 10:27:27 51°29.805 2°43.746 -999 3.631795 33.264783 1.193347
2008-02-13 10:28:26 51°29.99 2°43.629 -999 3.632417 33.266613 1.193347
2008-02-13 10:29:26 51°30.159 2°43.43 -999 3.634696 33.277222 1.123699
2008-02-13 10:30:26 51°30.328 2°43.231 -999 3.637909 33.29552 1.088875
2008-02-13 10:31:26 51°30.5 2°43.037 -999 3.638841 33.300511 1.158523
2008-02-13 10:32:26 51°30.691 2°42.947 -999 3.639256 33.297524 1.297819
2008-02-13 10:33:26 51°30.888 2°42.894 -999 3.639049 33.300819 1.193347
2008-02-13 10:34:26 51°31.086 2°42.837 -999 3.638841 33.295106 1.019227
2008-02-13 10:35:26 51°31.283 2°42.796 -999 3.638634 33.288493 1.193347
2008-02-13 10:36:27 51°31.483 2°42.761 -999 3.636976 33.279721 1.332643
2008-02-13 10:37:26 51°31.678 2°42.759 -999 3.636354 33.274292 1.402292
2008-02-13 10:38:26 51°31.875 2°42.76 -999 3.635629 33.270508 1.541588
2008-02-13 10:39:27 51°32.076 2°42.758 -999 3.6348 33.26747 1.541588
2008-02-13 10:40:26 51°32.271 2°42.756 -999 3.6348 33.26567 1.64606
2008-02-13 10:41:26 51°32.469 2°42.766 -999 3.636043 33.269327 1.611236
2008-02-13 10:42:26 51°32.667 2°42.782 -999 3.636872 33.273264 1.541588
2008-02-13 10:43:26 51°32.865 2°42.801 -999 3.63853 33.281137 1.506764
2008-02-13 10:44:26 51°33.064 2°42.822 -999 3.639981 33.288699 1.611236
2008-02-13 10:45:27 51°33.266 2°42.844 -999 3.641535 33.295512 1.611236
2008-02-13 10:46:26 51°33.46 2°42.871 -999 3.644748 33.310184 1.47194
2008-02-13 10:47:26 51°33.657 2°42.91 -999 3.652624 33.351535 1.332643
2008-02-13 10:48:27 51°33.856 2°42.947 -999 3.660707 33.389523 1.437116
2008-02-13 10:49:26 51°34.047 2°42.985 -999 3.669205 33.432544 1.506764
2008-02-13 10:50:26 51°34.24 2°43.023 -999 3.674697 33.459431 1.437116
2008-02-13 10:51:26 51°34.432 2°43.06 -999 3.679568 33.484485 1.228171
2008-02-13 10:52:27 51°34.627 2°43.097 -999 3.682781 33.499925 1.332643
2008-02-13 10:53:26 51°34.814 2°43.133 -999 3.684439 33.506816 1.262995
2008-02-13 10:54:27 51°35.005 2°43.182 -999 3.685164 33.51146 1.193347
2008-02-13 10:55:26 51°35.188 2°43.237 -999 3.685268 33.515208 1.158523
2008-02-13 10:56:26 51°35.373 2°43.297 -999 3.685372 33.513558 1.228171
2008-02-13 10:57:27 51°35.562 2°43.356 -999 3.685786 33.513256 1.297819
2008-02-13 10:58:26 51°35.744 2°43.413 -999 3.686201 33.511155 1.367467
2008-02-13 10:59:26 51°35.931 2°43.47 -999 3.686615 33.509055 1.332643
2008-02-13 11:00:26 51°36.116 2°43.529 -999 3.686926 33.506807 1.437116
2008-02-13 11:01:26 51°36.302 2°43.585 -999 3.687237 33.503661 1.64606
2008-02-13 11:02:26 51°36.487 2°43.643 -999 3.687444 33.500366 1.576412
2008-02-13 11:03:27 51°36.674 2°43.702 -999 3.687548 33.495127 1.576412
2008-02-13 11:04:27 51°36.858 2°43.759 -999 3.68734 33.48944 1.64606
2008-02-13 11:05:26 51°37.025 2°43.809 -999 3.686822 33.484202 1.611236
2008-02-13 11:06:27 51°37.21 2°43.865 -999 3.686304 33.481656 1.64606
2008-02-13 11:07:26 51°37.393 2°43.923 -999 3.685993 33.478513 1.541588
2008-02-13 11:08:26 51°37.58 2°43.981 -999 3.685682 33.476267 1.680884
2008-02-13 11:09:26 51°37.766 2°44.038 -999 3.685371 33.472227 1.82018
2008-02-13 11:10:26 51°37.952 2°44.099 -999 3.684646 33.46938 1.855004
2008-02-13 11:11:26 51°38.138 2°44.158 -999 3.684231 33.466086 1.855004
2008-02-13 11:12:26 51°38.292 2°44.006 -999 3.683402 33.466678 1.680884
2008-02-13 11:13:27 51°38.406 2°43.714 -999 3.683506 33.458752 1.64606
2008-02-13 11:14:26 51°38.449 2°43.379 -999 3.682055 33.456643 1.541588
2008-02-13 11:15:26 51°38.478 2°43.024 -999 3.682469 33.459041 1.750532
2008-02-13 11:16:26 51°38.484 2°42.663 -999 3.68392 33.465635 1.750532
2008-02-13 11:17:26 51°38.497 2°42.303 -999 3.6862 33.476121 1.855004
2008-02-13 11:18:26 51°38.509 2°41.941 -999 3.689724 33.489298 1.924652
2008-02-13 11:19:27 51°38.523 2°41.571 -999 3.691589 33.49379 1.889828
2008-02-13 11:20:27 51°38.537 2°41.199 -999 3.693351 33.50351 1.959476
2008-02-13 11:21:26 51°38.552 2°40.839 -999 3.694284 33.504857 1.750532
2008-02-13 11:22:26 51°38.563 2°40.472 -999 3.69646 33.516066 1.680884
2008-02-13 11:23:26 51°38.572 2°40.105 -999 3.698326 33.522339 1.576412
2008-02-13 11:24:26 51°38.58 2°39.739 -999 3.700606 33.533688 1.541588
2008-02-13 11:25:26 51°38.587 2°39.373 -999 3.70102 33.536076 1.541588
2008-02-13 11:26:26 51°38.591 2°39.008 -999 3.700917 33.530549 1.541588
2008-02-13 11:27:27 51°38.597 2°38.638 -999 3.703404 33.548464 1.541588
2008-02-13 11:28:26 51°38.603 2°38.282 -999 3.703301 33.543833 1.680884
2008-02-13 11:29:27 51°38.61 2°37.914 -999 3.703404 33.539501 1.715708
2008-02-13 11:30:27 51°38.618 2°37.551 -999 3.703611 33.535319 1.680884
2008-02-13 11:31:27 51°38.627 2°37.185 -999 3.704129 33.533377 1.576412
2008-02-13 11:32:26 51°38.634 2°36.825 -999 3.706824 33.553368 1.611236
2008-02-13 11:33:26 51°38.642 2°36.459 -999 3.70869 33.559624 1.437116
2008-02-13 11:34:26 51°38.649 2°36.092 -999 3.712628 33.588545 1.47194
2008-02-13 11:35:26 51°38.658 2°35.725 -999 3.71553 33.604329 1.437116
2008-02-13 11:36:27 51°38.667 2°35.349 -999 3.718743 33.625026 1.123699
2008-02-13 11:37:26 51°38.68 2°34.982 -999 3.720402 33.634548 1.123699
2008-02-13 11:38:27 51°38.694 2°34.605 -999 3.721645 33.646171 1.228171
2008-02-13 11:39:26 51°38.705 2°34.244 -999 3.721542 33.639748 1.297819
2008-02-13 11:40:26 51°38.68 2°33.877 -999 3.722889 33.651516 1.228171
2008-02-13 11:41:26 51°38.546 2°33.601 -999 3.722475 33.64555 1.123699
2008-02-13 11:42:26 51°38.32 2°33.547 -999 3.722474 33.636587 1.019227
2008-02-13 11:43:26 51°38.09 2°33.525 -999 3.723718 33.646412 1.262995
2008-02-13 11:44:26 51°37.86 2°33.521 -999 3.723511 33.647912 1.332643
2008-02-13 11:45:27 51°37.625 2°33.518 -999 3.722164 33.638836 1.437116
2008-02-13 11:46:26 51°37.4 2°33.517 -999 3.72092 33.632593 1.367467
2008-02-13 11:47:27 51°37.167 2°33.515 -999 3.719054 33.620986 1.64606
2008-02-13 11:48:26 51°36.941 2°33.51 -999 3.717396 33.61415 1.611236
2008-02-13 11:49:26 51°36.71 2°33.502 -999 3.714597 33.594936 1.611236
2008-02-13 11:50:27 51°36.478 2°33.503 -999 3.711799 33.581986 1.715708
2008-02-13 11:51:26 51°36.253 2°33.508 -999 3.709104 33.568279 1.750532
2008-02-13 11:52:27 51°36.021 2°33.52 -999 3.704026 33.53502 1.889828
2008-02-13 11:53:26 51°35.798 2°33.536 -999 3.701435 33.52771 1.9943
2008-02-13 11:54:26 51°35.571 2°33.548 -999 3.698429 33.51263 1.959476
2008-02-13 11:55:26 51°35.344 2°33.559 -999 3.695217 33.498137 2.029124
2008-02-13 11:56:26 51°35.133 2°33.643 -999 3.691382 33.474667 1.889828
2008-02-13 11:57:26 51°34.948 2°33.811 -999 3.689931 33.468083 1.855004
2008-02-13 11:58:27 51°34.813 2°34.056 -999 3.689206 33.468822 1.889828
2008-02-13 11:59:26 51°34.681 2°34.293 -999 3.689724 33.472263 2.029124
2008-02-13 12:00:26 51°34.543 2°34.531 -999 3.688584 33.46792 1.855004
2008-02-13 12:01:26 51°34.404 2°34.768 -999 3.685371 33.452497 1.924652
2008-02-13 12:02:26 51°34.266 2°35.01 -999 3.683713 33.443809 1.785356
2008-02-13 12:03:26 51°34.128 2°35.253 -999 3.68392 33.44949 1.750532
2008-02-13 12:04:26 51°33.979 2°35.486 -999 3.681951 33.441243 1.889828
2008-02-13 12:05:26 51°33.794 2°35.655 -999 3.679567 33.426112 1.959476
2008-02-13 12:06:27 51°33.569 2°35.713 -999 3.677909 33.421897 2.238069
2008-02-13 12:07:26 51°33.342 2°35.644 -999 3.677288 33.422782 2.238069
2008-02-13 12:08:26 51°33.111 2°35.555 -999 3.676251 33.418577 2.481837
2008-02-13 12:09:27 51°32.876 2°35.467 -999 3.677599 33.430412 2.412189
2008-02-13 12:10:26 51°32.647 2°35.381 -999 3.677599 33.430412 2.377365
2008-02-13 12:11:26 51°32.413 2°35.294 -999 3.677391 33.43011 2.029124
2008-02-13 12:12:27 51°32.175 2°35.207 -999 3.676769 33.427408 2.029124
2008-02-13 12:13:26 51°31.945 2°35.122 -999 3.675733 33.423203 2.133597
2008-02-13 12:14:26 51°31.711 2°35.037 -999 3.674697 33.418099 1.959476
2008-02-13 12:15:27 51°31.473 2°34.951 -999 3.673971 33.416141 1.82018
2008-02-13 12:16:26 51°31.242 2°34.869 -999 3.673868 33.415989 1.611236
2008-02-13 12:17:26 51°31.008 2°34.784 -999 3.673557 33.415535 1.715708
2008-02-13 12:18:26 51°30.774 2°34.702 -999 3.673453 33.416281 1.855004
2008-02-13 12:19:26 51°30.542 2°34.617 -999 3.671691 33.405625 1.924652
2008-02-13 12:20:26 51°30.31 2°34.535 -999 3.669411 33.393308 1.855004
2008-02-13 12:21:26 51°30.075 2°34.477 -999 3.667857 33.388334 1.680884
2008-02-13 12:22:26 51°29.843 2°34.495 -999 3.667339 33.387574 2.063949
2008-02-13 12:23:26 51°29.646 2°34.649 -999 3.665681 33.379751 2.133597
2008-02-13 12:24:26 51°29.471 2°34.848 -999 3.665784 33.376313 2.168421
2008-02-13 12:25:26 51°29.31 2°35.065 -999 3.662572 33.360812 1.959476
2008-02-13 12:26:27 51°29.157 2°35.297 -999 3.654489 33.330017 1.82018
2008-02-13 12:27:26 51°29.019 2°35.534 -999 3.646509 33.294818 1.715708
2008-02-13 12:28:26 51°28.877 2°35.772 -999 3.638841 33.260914 1.82018
2008-02-13 12:29:27 51°28.734 2°36.015 -999 3.633038 33.236042 1.855004
2008-02-13 12:30:26 51°28.601 2°36.255 -999 3.629411 33.219805 2.098773
2008-02-13 12:31:27 51°28.461 2°36.501 -999 3.626924 33.210667 2.307717
2008-02-13 12:32:26 51°28.323 2°36.738 -999 3.624852 33.200349 2.377365
2008-02-13 12:33:27 51°28.181 2°36.986 -999 3.622883 33.19378 2.238069
2008-02-13 12:34:26 51°28.14 2°37.195 -999 3.620603 33.192139 2.029124
2008-02-13 12:35:26 51°28.214 2°37.102 -999 3.620396 33.190026 1.785356
2008-02-13 12:36:27 51°28.313 2°36.827 -999 3.620914 33.189908 1.959476
2008-02-13 12:37:26 51°28.432 2°36.552 -999 3.620707 33.188695 2.203245
2008-02-13 12:38:26 51°28.555 2°36.271 -999 3.620914 33.189008 2.272893
2008-02-13 12:39:27 51°28.683 2°35.984 -999 3.622468 33.191355 2.377365
2008-02-13 12:40:27 51°28.808 2°35.702 -999 3.624541 33.19898 2.447013
2008-02-13 12:41:26 51°28.932 2°35.43 -999 3.626613 33.209299 2.272893
2008-02-13 12:42:26 51°29.056 2°35.15 -999 3.629204 33.221292 2.168421
2008-02-13 12:43:26 51°29.178 2°34.867 -999 3.633452 33.242059 2.133597
2008-02-13 12:44:26 51°29.298 2°34.583 -999 3.640292 33.271172 2.203245
2008-02-13 12:45:26 51°29.417 2°34.301 -999 3.64796 33.302366 2.133597
2008-02-13 12:46:26 51°29.534 2°34.019 -999 3.658116 33.345259 2.029124
2008-02-13 12:47:27 51°29.653 2°33.732 -999 3.663194 33.36891 2.098773
2008-02-13 12:48:26 51°29.751 2°33.425 -999 3.665059 33.378837 2.307717
2008-02-13 12:49:26 51°29.764 2°33.065 -999 3.666199 33.3859 2.342541
2008-02-13 12:50:27 51°29.704 2°32.699 -999 3.667442 33.387726 2.203245
2008-02-13 12:51:27 51°29.642 2°32.341 -999 3.667132 33.385474 2.133597
2008-02-13 12:52:26 51°29.577 2°31.992 -999 3.66651 33.381867 2.203245
2008-02-13 12:53:26 51°29.499 2°31.64 -999 3.66651 33.382765 2.063949
2008-02-13 12:54:27 51°29.407 2°31.287 -999 3.66765 33.386235 2.063949
2008-02-13 12:55:27 51°29.315 2°30.94 -999 3.669722 33.395559 2.098773
2008-02-13 12:56:27 51°29.223 2°30.594 -999 3.673039 33.412084 2.098773
2008-02-13 12:57:27 51°29.127 2°30.244 -999 3.67708 33.429656 2.168421
2008-02-13 12:58:27 51°29.012 2°29.908 -999 3.680604 33.447354 1.9943
2008-02-13 12:59:27 51°28.894 2°29.571 -999 3.684438 33.463695 1.959476
2008-02-13 13:00:27 51°28.774 2°29.235 -999 3.687962 33.478674 1.889828
2008-02-13 13:01:26 51°28.657 2°28.904 -999 3.692004 33.497977 1.924652
2008-02-13 13:02:27 51°28.536 2°28.563 -999 3.696149 33.517411 1.82018
2008-02-13 13:03:27 51°28.419 2°28.23 -999 3.698222 33.525776 1.715708
2008-02-13 13:04:27 51°28.304 2°27.893 -999 3.699673 33.53145 1.541588
2008-02-13 13:05:27 51°28.191 2°27.558 -999 3.700917 33.537721 1.332643
2008-02-13 13:06:27 51°28.079 2°27.227 -999 3.702057 33.542944 1.262995
2008-02-13 13:07:27 51°27.967 2°26.895 -999 3.703197 33.548166 1.402292
2008-02-13 13:08:27 51°27.854 2°26.563 -999 3.704441 33.553536 1.402292
2008-02-13 13:09:27 51°27.743 2°26.231 -999 3.705788 33.557259 1.437116
2008-02-13 13:10:27 51°27.63 2°25.901 -999 3.707343 33.564863 1.47194
2008-02-13 13:11:27 51°27.517 2°25.57 -999 3.708897 33.570671 1.506764
2008-02-13 13:12:27 51°27.405 2°25.236 -999 3.70983 33.573797 1.576412
2008-02-13 13:13:27 51°27.29 2°24.9 -999 3.71097 33.579906 1.576412
2008-02-13 13:14:27 51°27.158 2°24.58 -999 3.714287 33.593597 1.611236
2008-02-13 13:15:27 51°27.007 2°24.279 -999 3.718536 33.614874 1.576412
2008-02-13 13:16:27 51°26.842 2°23.998 -999 3.722474 33.6339 1.611236
2008-02-13 13:17:27 51°26.666 2°23.735 -999 3.724651 33.64146 1.576412
2008-02-13 13:18:27 51°26.484 2°23.482 -999 3.725998 33.647844 1.506764
2008-02-13 13:19:26 51°26.304 2°23.241 -999 3.72662 33.648723 1.506764
2008-02-13 13:20:27 51°26.12 2°22.989 -999 3.72662 33.648723 1.332643
2008-02-13 13:21:27 51°25.936 2°22.745 -999 3.726413 33.647535 1.262995
2008-02-13 13:22:27 51°25.751 2°22.507 -999 3.726413 33.645744 1.123699
2008-02-13 13:23:27 51°25.568 2°22.268 -999 3.726206 33.644555 1.262995
2008-02-13 13:24:27 51°25.386 2°22.027 -999 3.725998 33.644262 1.437116
2008-02-13 13:25:27 51°25.204 2°21.786 -999 3.726102 33.644408 1.576412
2008-02-13 13:26:26 51°25.024 2°21.549 -999 3.726206 33.645451 1.680884
2008-02-13 13:27:27 51°24.842 2°21.3 -999 3.726516 33.644995 1.64606
2008-02-13 13:28:27 51°24.662 2°21.058 -999 3.727449 33.649 1.715708
2008-02-13 13:29:27 51°24.483 2°20.816 -999 3.728278 33.652858 1.715708
2008-02-13 13:30:27 51°24.304 2°20.572 -999 3.729211 33.655966 1.785356
2008-02-13 13:31:27 51°24.126 2°20.425 -999 3.73087 33.666363 1.576412
2008-02-13 13:32:27 51°24.012 2°20.594 -999 3.733046 33.671221 1.506764
2008-02-13 13:33:27 51°23.912 2°20.865 -999 3.73429 33.672079 1.402292
2008-02-13 13:34:27 51°23.846 2°21.166 -999 3.729937 33.6552 1.332643
2008-02-13 13:35:27 51°23.779 2°21.466 -999 3.727449 33.643629 1.088875
2008-02-13 13:36:27 51°23.712 2°21.768 -999 3.727346 33.644377 1.262995
2008-02-13 13:37:27 51°23.647 2°22.073 -999 3.729626 33.655656 1.262995
2008-02-13 13:38:27 51°23.58 2°22.377 -999 3.72776 33.647649 1.297819
2008-02-13 13:39:27 51°23.512 2°22.682 -999 3.718121 33.602641 1.297819
2008-02-13 13:40:27 51°23.44 2°22.987 -999 3.70641 33.551877 1.715708
2008-02-13 13:41:27 51°23.37 2°23.291 -999 3.697808 33.515318 2.063949
2008-02-13 13:42:27 51°23.298 2°23.595 -999 3.692626 33.48991 2.272893
2008-02-13 13:43:27 51°23.225 2°23.899 -999 3.687651 33.468359 2.516661
2008-02-13 13:44:27 51°23.154 2°24.203 -999 3.684231 33.454425 2.516661
2008-02-13 13:45:27 51°23.085 2°24.508 -999 3.681122 33.439138 2.412189
2008-02-13 13:46:27 51°23.018 2°24.812 -999 3.675422 33.411086 2.342541
2008-02-13 13:47:27 51°22.933 2°25.108 -999 3.668375 33.375637 2.377365
2008-02-13 13:48:27 51°22.804 2°25.368 -999 3.661743 33.347026 2.516661
2008-02-13 13:49:27 51°22.664 2°25.62 -999 3.656147 33.326187 2.655957
2008-02-13 13:50:27 51°22.522 2°25.869 -999 3.650861 33.303086 2.481837
2008-02-13 13:51:27 51°22.38 2°26.119 -999 3.646924 33.288248 2.342541
2008-02-13 13:52:27 51°22.237 2°26.366 -999 3.644333 33.278999 2.342541
2008-02-13 13:53:27 51°22.095 2°26.613 -999 3.642468 33.272623 2.412189
2008-02-13 13:54:27 51°21.952 2°26.861 -999 3.641328 33.268225 2.447013
2008-02-13 13:55:27 51°21.816 2°27.112 -999 3.64081 33.263857 2.447013
2008-02-13 13:56:27 51°21.767 2°27.411 -999 3.633141 33.229906 2.655957
2008-02-13 13:57:27 51°21.759 2°27.727 -999 3.624955 33.187918 2.899726
2008-02-13 13:58:27 51°21.749 2°28.046 -999 3.61822 33.157946 3.143494
2008-02-13 13:59:27 51°21.739 2°28.368 -999 3.613453 33.137218 3.213142
2008-02-13 14:00:27 51°21.728 2°28.69 -999 3.609723 33.123442 3.352439
2008-02-13 14:01:27 51°21.718 2°29.013 -999 3.6062 33.110869 3.247966
2008-02-13 14:02:27 51°21.714 2°29.335 -999 3.604542 33.109237 3.073846
2008-02-13 14:03:27 51°21.712 2°29.656 -999 3.60506 33.114529 2.864902
2008-02-13 14:04:27 51°21.708 2°29.977 -999 3.606304 33.122729 2.725606
2008-02-13 14:05:27 51°21.693 2°30.3 -999 3.607962 33.136961 2.725606
2008-02-13 14:06:27 51°21.68 2°30.623 -999 3.610138 33.150178 2.481837
2008-02-13 14:07:27 51°21.668 2°30.947 -999 3.613453 33.170522 2.168421
2008-02-13 14:08:27 51°21.655 2°31.272 -999 3.615526 33.181767 2.029124
2008-02-13 14:09:27 51°21.639 2°31.598 -999 3.616666 33.188896 2.029124
2008-02-13 14:10:27 51°21.625 2°31.923 -999 3.616873 33.19011 1.9943
2008-02-13 14:11:27 51°21.608 2°32.25 -999 3.61594 33.185097 1.959476
2008-02-13 14:12:27 51°21.589 2°32.579 -999 3.61449 33.179299 2.098773
2008-02-13 14:13:27 51°21.57 2°32.907 -999 3.613557 33.172481 2.133597
2008-02-13 14:14:27 51°21.551 2°33.236 -999 3.61221 33.166836 2.238069
2008-02-13 14:15:27 51°21.537 2°33.569 -999 3.610759 33.15923 2.342541
2008-02-13 14:16:27 51°21.53 2°33.905 -999 3.60734 33.14052 2.655957
2008-02-13 14:17:27 51°21.52 2°34.245 -999 3.599879 33.098507 3.143494
2008-02-13 14:18:27 51°21.513 2°34.583 -999 3.600086 33.098824 2.969374
2008-02-13 14:19:27 51°21.506 2°34.92 -999 3.601952 33.111585 2.864902
2008-02-13 14:20:27 51°21.498 2°35.257 -999 3.600294 33.100942 2.830078
2008-02-13 14:21:27 51°21.49 2°35.594 -999 3.59905 33.095436 2.830078
2008-02-13 14:22:27 51°21.482 2°35.93 -999 3.598532 33.092841 2.830078
2008-02-13 14:23:27 51°21.469 2°36.266 -999 3.598014 33.094752 2.690782
2008-02-13 14:24:27 51°21.439 2°36.6 -999 3.597496 33.098466 2.516661
2008-02-13 14:25:27 51°21.398 2°36.932 -999 3.596667 33.099001 2.481837
2008-02-13 14:26:27 51°21.354 2°37.266 -999 3.594388 33.095514 2.447013
2008-02-13 14:27:27 51°21.31 2°37.6 -999 3.590554 33.081519 2.377365
2008-02-13 14:28:27 51°21.168 2°37.829 -999 3.588171 33.067932 2.307717
2008-02-13 14:29:27 51°21.011 2°38.06 -999 3.580815 33.053006 2.029124
2008-02-13 14:30:27 51°20.928 2°38.371 -999 3.570661 33.020154 1.889828
2008-02-13 14:31:27 51°20.891 2°38.707 -999 3.558228 32.977323 1.680884
2008-02-13 14:32:27 51°20.857 2°39.046 -999 3.547867 32.938493 1.64606
2008-02-13 14:33:27 51°20.821 2°39.382 -999 3.539786 32.910399 1.506764
2008-02-13 14:34:27 51°20.769 2°39.714 -999 3.530773 32.877137 1.47194
2008-02-13 14:35:27 51°20.713 2°40.044 -999 3.520723 32.831239 1.47194
2008-02-13 14:36:27 51°20.659 2°40.375 -999 3.513368 32.791349 1.576412
2008-02-13 14:37:27 51°20.604 2°40.707 -999 3.50767 32.757691 1.611236
2008-02-13 14:38:27 51°20.529 2°41.03 -999 3.503215 32.729633 1.611236
2008-02-13 14:39:27 51°20.447 2°41.349 -999 3.498657 32.705927 1.576412
2008-02-13 14:40:27 51°20.364 2°41.672 -999 3.494823 32.684281 1.64606
2008-02-13 14:41:27 51°20.282 2°41.996 -999 3.491716 32.667429 1.680884
2008-02-13 14:42:27 51°20.2 2°42.32 -999 3.487468 32.644168 1.680884
2008-02-13 14:43:27 51°20.121 2°42.626 -999 3.471204 32.541219 1.541588
2008-02-13 14:44:27 51°20.043 2°42.93 -999 3.415371 32.172334 1.402292
2008-02-13 14:45:27 51°19.965 2°43.236 -999 3.397245 32.056682 1.402292
2008-02-13 14:46:27 51°19.888 2°43.543 -999 3.395174 32.049418 1.367467
2008-02-13 14:47:27 51°19.809 2°43.852 -999 3.394759 32.05049 1.402292
2008-02-13 14:48:27 51°19.731 2°44.162 -999 3.392792 32.040698 1.437116
2008-02-13 14:49:27 51°19.653 2°44.473 -999 3.390099 32.024204 1.506764
2008-02-13 14:50:27 51°19.576 2°44.788 -999 3.386163 31.999181 1.506764
2008-02-13 14:51:27 51°19.5 2°45.107 -999 3.38347 31.984469 1.541588
2008-02-13 14:52:27 51°19.42 2°45.431 -999 3.378188 31.947093 1.715708
2008-02-13 14:53:27 51°19.341 2°45.76 -999 3.374666 31.921859 1.750532
2008-02-13 14:54:27 51°19.259 2°46.085 -999 3.371456 31.898072 1.785356
2008-02-13 14:55:27 51°19.178 2°46.408 -999 3.364309 31.845558 1.82018
2008-02-13 14:56:27 51°19.098 2°46.727 -999 3.359649 31.817303 1.680884
2008-02-13 14:57:27 51°19.018 2°47.043 -999 3.357474 31.807945 1.715708
2008-02-13 14:58:27 51°18.939 2°47.362 -999 3.35592 31.806013 1.680884
2008-02-13 14:59:27 51°18.86 2°47.679 -999 3.353746 31.795747 1.82018
2008-02-13 15:00:27 51°18.782 2°47.998 -999 3.332825 31.626016 1.889828
2008-02-13 15:01:27 51°18.705 2°48.318 -999 3.320812 31.521104 2.063949
2008-02-13 15:02:27 51°18.626 2°48.64 -999 3.312734 31.451289 2.168421
2008-02-13 15:03:27 51°18.549 2°48.965 -999 3.30797 31.40562 2.272893
2008-02-13 15:04:27 51°18.473 2°49.294 -999 3.305278 31.377289 2.272893
2008-02-13 15:05:27 51°18.396 2°49.624 -999 3.304035 31.359764 2.377365
2008-02-13 15:06:27 51°18.319 2°49.953 -999 3.299478 31.321615 2.481837
2008-02-13 15:07:27 51°18.241 2°50.279 -999 3.290883 31.256049 2.481837
2008-02-13 15:08:27 51°18.163 2°50.604 -999 3.283945 31.2052 2.447013
2008-02-13 15:09:27 51°18.086 2°50.929 -999 3.2797 31.173794 2.447013
2008-02-13 15:10:27 51°18.006 2°51.252 -999 3.279596 31.177137 2.447013
2008-02-13 15:11:27 51°17.924 2°51.574 -999 3.282496 31.212118 2.377365
2008-02-13 15:12:27 51°17.815 2°51.875 -999 3.285292 31.231804 2.412189
2008-02-13 15:13:27 51°17.648 2°52.084 -999 3.287673 31.234687 2.551485
2008-02-13 15:14:27 51°17.459 2°52.233 -999 3.29078 31.249633 2.690782
2008-02-13 15:15:27 51°17.266 2°52.36 -999 3.301549 31.323845 2.93455
2008-02-13 15:16:27 51°17.072 2°52.466 -999 3.310973 31.390009 2.969374
2008-02-13 15:17:27 51°16.898 2°52.582 -999 0.059293 0.42864 -1.697049
2008-02-13 15:18:27 51°16.727 2°52.698 -999 0.040563 0.289116 -1.697049
2008-02-13 15:19:27 51°16.565 2°52.842 -999 0.034903 0.247424 -1.697049
2008-02-13 15:20:27 51°16.424 2°53.002 -999 0.03233 0.228206 -1.697049
2008-02-13 15:21:27 51°16.285 2°53.161 -999 0.030683 0.215528 -1.697049
2008-02-13 15:22:27 51°16.147 2°53.321 -999 0.029448 0.206612 -1.697049
2008-02-13 15:23:27 51°16.01 2°53.481 -999 0.028522 0.199538 -1.697049
2008-02-13 15:24:27 51°15.907 2°53.613 -999 0.027699 0.193012 -1.697049
2008-02-13 15:25:27 51°15.849 2°53.703 -999 0.027184 0.188785 -1.697049
2008-02-13 15:26:27 51°15.804 2°53.777 -999 0.027184 0.188396 -1.697049
2008-02-13 15:27:27 51°15.744 2°53.848 -999 0.026876 0.185996 -1.697049
2008-02-13 15:28:27 51°15.673 2°53.921 -999 0.026773 0.185111 -1.697049
2008-02-13 15:29:27 51°15.602 2°53.997 -999 0.026567 0.183498 -1.697049
2008-02-13 15:30:27 51°15.531 2°54.072 -999 0.026258 0.181118 -1.731873
2008-02-13 15:31:27 51°15.442 2°54.136 -999 0.025435 0.174953 -1.731873
2008-02-13 15:32:27 51°15.346 2°54.203 -999 0.02492 0.170997 -1.697049
2008-02-13 15:33:27 51°15.27 2°54.258 -999 0.025126 0.172326 -1.731873
2008-02-13 15:34:27 51°15.171 2°54.321 -999 0.024611 0.168513 -1.697049
2008-02-13 15:35:27 51°15.056 2°54.394 -999 0.024303 0.166108 -1.697049
2008-02-13 15:36:27 51°14.943 2°54.482 -999 0.024714 0.168959 -1.697049
2008-02-13 15:37:27 51°14.837 2°54.6 -999 0.023891 0.162647 -1.697049
2008-02-13 15:38:27 51°14.723 2°54.687 -999 0.025229 0.171916 -1.697049
2008-02-13 15:39:27 51°14.615 2°54.8 -999 0.024303 0.164891 -1.731873
2008-02-13 15:40:27 51°14.506 2°54.917 -999 0.0242 0.163983 -1.697049
2008-02-13 15:41:27 51°14.399 2°55.044 -999 0.024303 0.164895 -1.731873
2008-02-13 15:42:27 51°14.305 2°55.183 -999 0.024611 0.166904 -1.731873
2008-02-13 15:43:27 51°14.23 2°55.307 -999 0.024817 0.16832 -1.697049
2008-02-13 15:44:27 51°14.146 2°55.401 -999 0.025023 0.169553 -1.697049
2008-02-13 15:45:27 51°14.052 2°55.472 -999 0.025332 0.171513 -1.697049
2008-02-13 15:46:27 51°13.961 2°55.547 -999 0.025332 0.171104 -1.697049
2008-02-13 15:47:27 51°13.872 2°55.608 -999 0.024714 0.166601 -1.697049
2008-02-13 15:48:27 51°13.789 2°55.671 -999 0.024714 0.166439 -1.731873
2008-02-13 15:49:27 51°13.724 2°55.766 -999 0.024303 0.163418 -1.697049
2008-02-13 15:50:28 51°13.684 2°55.871 -999 0.024714 0.166104 -1.731873
2008-02-13 15:51:27 51°13.67 2°55.938 -999 0.024406 0.163763 -1.697049
2008-02-13 15:52:27 51°13.666 2°55.95 -999 0.024611 0.165146 -1.697049
2008-02-13 15:53:27 51°13.667 2°55.952 -999 0.024611 0.164995 -1.697049